Time;durP1;ratioP1;P1;durP2;ratioP2;P2;SDS_P1;SDS_P2;PMS_P1;PMS_P2;Temp;Humidity;BMP_temperature;BMP_pressure;BME280_temperature;BME280_humidity;BME280_pressure;Samples;Min_cycle;Max_cycle;Signal;HPM_P1;HPM_P2
2022/10/07 00:01:22;;;;;;;5.17;3.33;;;11.90;99.20;;;12.13;65.13;96042.63;5028070;28;20498;-55
2022/10/07 00:03:49;;;;;;;4.00;3.60;;;11.90;99.40;;;12.13;65.86;96039.97;5029327;28;20474;-53
2022/10/07 00:06:18;;;;;;;4.40;3.50;;;11.90;99.80;;;12.12;65.13;96034.81;5028564;28;20543;-55
2022/10/07 00:08:47;;;;;;;4.00;3.37;;;11.90;99.30;;;12.08;64.44;96033.38;5028752;28;20542;-55
2022/10/07 00:11:16;;;;;;;4.13;3.10;;;11.90;98.90;;;12.06;64.45;96036.13;5025541;28;21511;-55
2022/10/07 00:13:44;;;;;;;4.17;3.60;;;11.90;99.00;;;12.03;64.58;96033.72;5028476;28;20461;-55
2022/10/07 00:16:13;;;;;;;4.70;4.20;;;11.80;98.80;;;12.00;64.98;96031.34;5028650;28;20465;-56
2022/10/07 00:18:42;;;;;;;3.33;3.13;;;11.80;99.20;;;11.98;65.20;96031.44;5028685;28;20478;-56
2022/10/07 00:21:11;;;;;;;11.03;4.10;;;11.80;99.30;;;11.98;65.42;96028.00;5029604;28;20840;-56
2022/10/07 00:23:38;;;;;;;5.63;3.83;;;11.80;99.60;;;11.95;65.03;96029.06;5028308;28;20570;-55
2022/10/07 00:26:07;;;;;;;7.33;3.70;;;11.80;99.30;;;11.92;64.70;96023.16;5028537;28;20476;-55
2022/10/07 00:28:35;;;;;;;4.60;3.43;;;11.80;99.20;;;11.92;64.85;96023.16;5028493;28;20484;-55
2022/10/07 00:31:03;;;;;;;17.13;3.70;;;11.70;99.20;;;11.89;64.79;96020.75;5028209;28;20476;-53
2022/10/07 00:33:31;;;;;;;5.33;2.80;;;11.70;99.10;;;11.87;65.01;96020.03;5028349;28;20502;-51
2022/10/07 00:36:00;;;;;;;4.17;3.73;;;11.70;99.30;;;11.86;65.38;96018.38;5028238;28;20472;-56
2022/10/07 00:38:27;;;;;;;4.80;3.60;;;11.70;99.40;;;11.83;65.28;96014.16;5028448;28;20452;-55
2022/10/07 00:40:54;;;;;;;6.07;3.13;;;11.70;99.30;;;11.81;65.22;96016.91;5027905;28;20904;-56
2022/10/07 00:43:24;;;;;;;5.30;2.70;;;11.60;99.30;;;11.78;64.99;96011.88;5028068;28;20464;-54
2022/10/07 00:45:51;;;;;;;5.73;3.97;;;11.60;99.30;;;11.76;65.20;96013.81;5027910;28;20475;-56
2022/10/07 00:48:22;;;;;;;3.17;2.97;;;11.60;99.60;;;11.75;65.39;96012.13;5027898;28;20492;-57
2022/10/07 00:50:50;;;;;;;4.23;3.50;;;11.60;99.50;;;11.71;65.08;96005.44;5027771;28;20534;-55
2022/10/07 00:53:19;;;;;;;6.40;3.33;;;11.50;99.20;;;11.69;64.73;96014.41;5024543;28;20996;-56
2022/10/07 00:55:46;;;;;;;9.43;3.27;;;11.50;99.10;;;11.65;65.04;96004.09;5028161;28;20814;-53
2022/10/07 00:58:13;;;;;;;6.30;3.23;;;11.50;99.20;;;11.65;65.11;96006.72;5028205;28;20908;-55
2022/10/07 01:00:41;;;;;;;8.40;3.20;;;11.50;99.40;;;11.63;65.12;96006.03;5026831;28;20531;-55
2022/10/07 01:03:08;;;;;;;11.23;3.90;;;11.50;99.40;;;11.62;65.07;96014.03;5027423;28;20563;-56
2022/10/07 01:05:35;;;;;;;6.80;2.90;;;11.40;99.40;;;11.58;65.30;96017.84;5026899;28;20576;-55
2022/10/07 01:08:03;;;;;;;3.70;3.40;;;11.40;99.40;;;11.54;65.25;96003.22;5027099;28;20507;-53
2022/10/07 01:10:35;;;;;;;4.20;2.90;;;11.40;99.40;;;11.50;65.46;96007.91;5024471;28;20477;-54
2022/10/07 01:13:06;;;;;;;3.10;2.60;;;11.30;99.50;;;11.51;65.55;96004.31;5026576;28;20503;-56
2022/10/07 01:15:38;;;;;;;8.60;3.80;;;11.30;99.70;;;11.49;65.38;96006.22;5024656;28;20476;-55
2022/10/07 01:18:14;;;;;;;3.20;3.00;;;11.30;99.70;;;11.47;65.35;96000.25;5027639;28;20464;-55
2022/10/07 01:20:46;;;;;;;9.30;3.53;;;11.30;99.40;;;11.45;65.44;96005.63;5024619;28;20476;-53
2022/10/07 01:23:43;;;;;;;11.80;3.80;;;11.30;99.60;;;11.42;65.68;95999.75;5027401;28;20456;-55
2022/10/07 01:26:50;;;;;;;10.27;3.83;;;11.20;99.60;;;11.39;65.89;96003.44;5002134;28;20469;-54
2022/10/07 01:29:19;;;;;;;29.83;3.93;;;11.20;99.70;;;11.39;65.68;96007.91;5027336;28;20628;-55
2022/10/07 01:31:50;;;;;;;4.33;3.60;;;11.20;99.70;;;11.38;65.69;96008.84;5027573;28;20534;-55
2022/10/07 01:34:17;;;;;;;8.43;3.60;;;11.20;99.70;;;11.35;65.60;96004.63;5027139;28;20689;-56
2022/10/07 01:36:50;;;;;;;4.87;4.10;;;11.20;99.80;;;11.35;65.57;96004.63;5027194;28;20501;-56
2022/10/07 01:39:18;;;;;;;6.67;3.60;;;11.20;99.80;;;11.33;65.77;96000.47;5027320;28;20484;-57
2022/10/07 01:41:47;;;;;;;3.53;3.20;;;11.10;99.80;;;11.29;65.86;95998.06;5026884;28;20457;-55
2022/10/07 01:44:14;;;;;;;10.33;3.43;;;11.10;99.90;;;11.29;66.07;96002.47;5027120;28;20477;-55
2022/10/07 01:46:42;;;;;;;4.07;3.00;;;11.10;99.90;;;11.28;66.06;96006.06;5027062;28;20455;-56
2022/10/07 01:49:10;;;;;;;6.10;3.03;;;11.10;99.90;;;11.27;66.42;96005.22;5027199;28;20492;-55
2022/10/07 01:51:38;;;;;;;4.97;3.67;;;11.10;99.90;;;11.27;66.40;95999.13;5026934;28;20480;-55
2022/10/07 01:54:15;;;;;;;3.80;3.33;;;11.10;99.90;;;11.25;66.29;95999.22;5026642;28;20967;-56
2022/10/07 01:56:56;;;;;;;6.97;3.30;;;11.10;99.90;;;11.25;66.88;96003.66;5023400;28;20555;-55
2022/10/07 01:59:50;;;;;;;3.93;3.10;;;11.10;99.90;;;11.23;66.49;95998.53;5026317;28;20484;-54
2022/10/07 02:02:28;;;;;;;5.93;3.33;;;11.10;99.90;;;11.22;66.08;95994.19;5025076;28;20457;-55
2022/10/07 02:04:59;;;;;;;8.37;3.60;;;11.00;99.90;;;11.19;66.01;95998.88;5026320;28;20469;-55
2022/10/07 02:07:34;;;;;;;5.10;3.53;;;11.00;99.90;;;11.18;65.97;96002.44;5026114;28;20452;-55
2022/10/07 02:10:09;;;;;;;3.13;2.93;;;11.00;99.90;;;11.15;65.83;96008.78;5026230;28;20534;-57
2022/10/07 02:12:41;;;;;;;4.50;3.50;;;11.00;99.90;;;11.13;66.03;96003.63;5026108;28;20456;-55
2022/10/07 02:15:12;;;;;;;13.90;3.40;;;11.00;99.90;;;11.12;66.04;96009.00;5026161;28;20981;-55
2022/10/07 02:17:43;;;;;;;4.93;3.10;;;11.00;99.90;;;11.10;66.12;96001.22;5026017;28;20444;-56
2022/10/07 02:20:11;;;;;;;4.53;3.50;;;11.00;99.90;;;11.10;66.12;96001.22;5026972;28;20802;-56
2022/10/07 02:22:38;;;;;;;5.47;3.77;;;10.90;99.90;;;11.08;66.36;96008.41;5025819;28;20989;-55
2022/10/07 02:25:08;;;;;;;7.73;3.67;;;10.90;99.90;;;11.07;66.63;96001.44;5026604;28;20484;-56
2022/10/07 02:27:38;;;;;;;3.70;3.40;;;10.90;99.90;;;11.07;67.04;96008.50;5026119;28;20453;-55
2022/10/07 02:30:08;;;;;;;7.57;4.60;;;10.90;99.90;;;11.05;66.59;95998.09;5026296;28;20484;-53
2022/10/07 02:32:35;;;;;;;14.07;3.97;;;10.90;99.90;;;11.03;66.87;96010.53;5026029;28;20534;-54
2022/10/07 02:35:12;;;;;;;4.17;3.60;;;10.90;99.90;;;11.03;66.84;96005.28;5026019;28;20468;-55
2022/10/07 02:37:39;;;;;;;3.10;2.90;;;10.90;99.90;;;11.04;66.93;96009.56;5026262;28;20449;-54
2022/10/07 02:40:07;;;;;;;5.70;3.30;;;10.90;99.90;;;11.04;67.18;96017.47;5026356;28;20495;-56
2022/10/07 02:42:39;;;;;;;3.70;3.40;;;10.90;99.90;;;11.05;67.07;96018.34;5025784;28;20457;-53
2022/10/07 02:45:12;;;;;;;4.77;3.80;;;10.90;99.90;;;11.04;66.78;96012.19;5025949;28;20476;-56
2022/10/07 02:47:42;;;;;;;3.50;3.20;;;10.90;99.90;;;11.03;66.98;96007.06;5023168;28;20532;-56
2022/10/07 02:50:11;;;;;;;3.87;3.57;;;10.90;99.90;;;11.02;66.83;96014.13;5025790;28;20484;-55
2022/10/07 02:52:39;;;;;;;5.83;3.80;;;10.90;99.90;;;11.02;66.81;96013.28;5025568;28;20444;-58
2022/10/07 02:55:08;;;;;;;6.77;4.07;;;10.90;99.90;;;10.98;67.06;96012.66;5025828;28;20469;-56
2022/10/07 02:57:40;;;;;;;11.47;4.90;;;10.80;99.90;;;10.96;67.10;96014.56;5025527;28;20494;-56
2022/10/07 03:00:09;;;;;;;5.90;4.57;;;10.80;99.90;;;10.94;67.19;96022.59;5023176;28;20488;-57
2022/10/07 03:02:39;;;;;;;10.97;4.10;;;10.80;99.90;;;10.94;67.14;96024.38;5025393;28;20937;-56
2022/10/07 03:05:08;;;;;;;7.70;4.57;;;10.80;99.90;;;10.91;66.56;96027.25;5025490;28;20468;-54
2022/10/07 03:07:36;;;;;;;9.20;4.10;;;10.80;99.90;;;10.88;66.56;96017.78;5025537;28;20463;-57
2022/10/07 03:10:04;;;;;;;7.53;4.40;;;10.70;99.90;;;10.86;66.90;96017.06;5025983;28;20469;-55
2022/10/07 03:12:31;;;;;;;6.53;5.07;;;10.70;99.90;;;10.84;66.64;96024.22;5021734;28;20440;-55
2022/10/07 03:15:00;;;;;;;4.00;3.63;;;10.70;99.90;;;10.81;66.73;96027.06;5025406;28;20531;-54
2022/10/07 03:17:27;;;;;;;12.17;4.23;;;10.70;99.90;;;10.79;66.54;96025.53;5025317;28;20468;-55
2022/10/07 03:19:54;;;;;;;15.13;4.00;;;10.70;99.90;;;10.75;66.36;96023.13;5024979;28;20488;-55
2022/10/07 03:22:22;;;;;;;5.40;4.03;;;10.60;99.90;;;10.72;66.65;96025.09;5025663;28;20822;-55
2022/10/07 03:24:49;;;;;;;8.40;5.03;;;10.60;99.90;;;10.68;67.06;96016.59;5024959;28;20480;-54
2022/10/07 03:27:16;;;;;;;7.33;4.30;;;10.50;99.90;;;10.68;67.23;96016.59;5025435;28;20456;-55
2022/10/07 03:29:44;;;;;;;5.43;4.10;;;10.50;99.90;;;10.68;67.41;96011.34;5024889;28;20504;-55
2022/10/07 03:32:13;;;;;;;4.90;4.17;;;10.50;99.90;;;10.67;67.22;96012.28;5025541;28;20825;-57
2022/10/07 03:34:41;;;;;;;8.80;4.30;;;10.50;99.90;;;10.67;67.54;96008.81;5025246;28;20991;-54
2022/10/07 03:37:08;;;;;;;5.50;3.87;;;10.50;99.90;;;10.68;67.54;96013.16;5029411;28;20449;-55
2022/10/07 03:39:35;;;;;;;4.83;4.40;;;10.50;99.90;;;10.68;67.44;96013.97;5027057;28;21012;-55
2022/10/07 03:42:03;;;;;;;6.17;4.00;;;10.50;99.90;;;10.68;67.47;96016.59;5028867;28;20510;-55
2022/10/07 03:44:30;;;;;;;6.67;3.97;;;10.50;99.90;;;10.68;67.60;96015.78;5029489;28;20480;-55
2022/10/07 03:46:58;;;;;;;8.23;3.90;;;10.50;99.90;;;10.67;67.68;96014.09;5029250;28;20507;-56
2022/10/07 03:49:26;;;;;;;10.23;3.90;;;10.50;99.90;;;10.66;67.35;96007.13;5029066;28;20501;-56
2022/10/07 03:51:53;;;;;;;5.83;4.57;;;10.50;99.90;;;10.64;67.39;96009.06;5025609;28;20448;-57
2022/10/07 03:54:21;;;;;;;17.50;5.13;;;10.50;99.90;;;10.63;67.32;96005.59;5027798;28;20476;-57
2022/10/07 03:56:48;;;;;;;8.50;4.80;;;10.50;99.90;;;10.62;67.84;96001.28;5029295;28;20495;-56
2022/10/07 03:59:15;;;;;;;4.90;3.73;;;10.50;99.90;;;10.62;67.34;96011.78;5023969;28;20543;-55
2022/10/07 04:01:42;;;;;;;17.73;5.80;;;10.50;99.90;;;10.62;67.44;96010.97;5028240;28;20457;-56
2022/10/07 04:04:10;;;;;;;14.77;5.00;;;10.50;99.90;;;10.55;66.98;96016.66;5028451;28;20452;-56
2022/10/07 04:06:39;;;;;;;9.40;5.87;;;10.40;99.90;;;10.47;66.99;96018.16;5028127;28;20983;-55
2022/10/07 04:09:06;;;;;;;13.50;6.23;;;10.30;99.90;;;10.39;67.67;96014.31;5027714;28;20528;-55
2022/10/07 04:11:33;;;;;;;14.93;5.10;;;10.20;99.90;;;10.38;67.97;96012.63;5028528;28;20449;-55
2022/10/07 04:14:01;;;;;;;8.37;4.30;;;10.20;99.90;;;10.39;68.02;96010.81;5027885;28;20589;-54
2022/10/07 04:16:28;;;;;;;6.67;4.30;;;10.20;99.90;;;10.38;67.54;96010.00;5028472;28;20871;-55
2022/10/07 04:18:55;;;;;;;18.83;4.80;;;10.20;99.90;;;10.34;67.56;96013.78;5028185;28;20444;-56
2022/10/07 04:21:23;;;;;;;10.70;4.70;;;10.20;99.90;;;10.32;67.83;96005.16;5028114;28;20567;-54
2022/10/07 04:23:51;;;;;;;10.33;4.00;;;10.20;99.90;;;10.33;68.23;96009.50;5028385;28;20459;-53
2022/10/07 04:26:19;;;;;;;5.70;4.07;;;10.20;99.90;;;10.35;68.48;96017.28;5028578;28;20479;-55
2022/10/07 04:28:46;;;;;;;9.10;5.67;;;10.20;99.90;;;10.38;68.52;96014.44;5028342;28;20600;-54
2022/10/07 04:31:13;;;;;;;16.93;4.60;;;10.30;99.90;;;10.41;68.44;96014.22;5027606;28;21055;-54
2022/10/07 04:33:41;;;;;;;7.40;4.63;;;10.30;99.90;;;10.43;68.53;96012.28;5027830;28;20460;-57
2022/10/07 04:36:10;;;;;;;12.90;4.70;;;10.20;99.90;;;10.46;68.54;96011.25;5028160;28;20499;-55
2022/10/07 04:38:38;;;;;;;11.77;4.93;;;10.30;99.90;;;10.48;68.35;96009.34;5027937;28;20460;-56
2022/10/07 04:41:07;;;;;;;19.43;5.50;;;10.30;99.90;;;10.46;68.06;96004.19;5027600;28;20472;-54
2022/10/07 04:43:35;;;;;;;13.23;5.53;;;10.30;99.90;;;10.46;67.98;96005.97;5027282;28;20456;-55
2022/10/07 04:46:03;;;;;;;12.10;6.47;;;10.30;99.90;;;10.47;68.46;96007.66;5025768;28;20888;-56
2022/10/07 04:48:31;;;;;;;22.33;5.70;;;10.30;99.90;;;10.50;68.17;96012.69;5028070;28;20496;-55
2022/10/07 04:51:02;;;;;;;19.03;5.63;;;10.30;99.90;;;10.52;68.73;96011.63;5027537;28;20542;-56
2022/10/07 04:53:30;;;;;;;14.33;5.80;;;10.40;99.90;;;10.55;68.61;96016.66;5028184;28;20528;-53
2022/10/07 04:55:58;;;;;;;11.73;6.13;;;10.40;99.90;;;10.59;68.76;96017.28;5024411;28;21005;-56
2022/10/07 04:58:27;;;;;;;13.53;5.90;;;10.40;99.90;;;10.63;68.55;96020.50;5025812;28;21087;-55
2022/10/07 05:00:56;;;;;;;17.23;5.73;;;10.50;99.90;;;10.64;68.52;96025.66;5025097;28;20487;-55
2022/10/07 05:03:24;;;;;;;14.33;4.97;;;10.50;99.90;;;10.68;68.54;96021.88;5025508;28;20929;-55
2022/10/07 05:05:53;;;;;;;14.10;6.33;;;10.50;99.90;;;10.72;68.42;96025.97;5025798;28;20468;-55
2022/10/07 05:08:23;;;;;;;22.33;7.50;;;10.60;99.90;;;10.76;68.64;96026.56;5025100;28;21035;-55
2022/10/07 05:10:55;;;;;;;14.23;6.73;;;10.60;99.90;;;10.81;68.54;96032.31;5027016;28;20469;-54
2022/10/07 05:13:23;;;;;;;15.27;5.97;;;10.60;99.90;;;10.86;68.66;96029.34;5027031;28;20452;-55
2022/10/07 05:15:52;;;;;;;42.17;8.37;;;10.70;99.90;;;10.90;68.57;96030.81;5026719;28;20499;-55
2022/10/07 05:18:20;;;;;;;23.33;6.33;;;10.70;99.90;;;10.93;68.46;96036.69;5027281;28;20449;-54
2022/10/07 05:20:48;;;;;;;39.20;8.20;;;10.80;99.90;;;10.99;68.21;96034.59;5027413;28;20480;-54
2022/10/07 05:23:15;;;;;;;34.80;8.63;;;10.80;99.90;;;11.03;68.57;96047.41;5027195;28;20468;-55
2022/10/07 05:25:43;;;;;;;22.63;8.00;;;10.80;99.90;;;11.07;68.43;96026.94;5026856;28;20856;-55
2022/10/07 05:28:10;;;;;;;31.50;9.27;;;10.90;99.90;;;11.11;68.22;96031.03;5027254;28;20989;-54
2022/10/07 05:30:39;;;;;;;20.90;9.10;;;10.90;99.90;;;11.13;68.31;96037.84;5026850;28;20932;-56
2022/10/07 05:33:08;;;;;;;24.60;8.60;;;11.00;99.90;;;11.18;68.30;96034.03;5026304;28;20461;-55
2022/10/07 05:35:35;;;;;;;35.03;9.53;;;11.00;99.90;;;11.22;67.82;96040.78;5026744;28;20538;-55
2022/10/07 05:38:03;;;;;;;31.00;8.63;;;11.10;99.90;;;11.25;67.17;96037.91;5026875;28;20449;-56
2022/10/07 05:40:30;;;;;;;17.30;8.73;;;11.10;99.90;;;11.29;67.17;96037.56;5026511;28;20477;-56
2022/10/07 05:42:57;;;;;;;12.30;8.17;;;11.10;99.90;;;11.36;67.72;96043.19;5027265;28;20449;-56
2022/10/07 05:45:25;;;;;;;21.30;8.23;;;11.10;99.90;;;11.49;67.63;96037.84;5026275;28;21005;-55
2022/10/07 05:47:52;;;;;;;15.10;7.63;;;11.30;99.90;;;11.70;68.71;96040.63;5026776;28;20540;-55
2022/10/07 05:50:21;;;;;;;25.93;7.60;;;11.40;99.90;;;11.97;70.14;96036.84;5026583;28;20877;-55
2022/10/07 05:52:50;;;;;;;17.33;8.30;;;11.60;99.90;;;12.26;69.05;96037.19;5026886;28;20619;-56
2022/10/07 05:55:18;;;;;;;18.70;7.73;;;11.90;99.90;;;12.58;68.67;96039.09;5026658;28;20981;-54
2022/10/07 05:57:45;;;;;;;51.23;8.37;;;12.20;99.90;;;12.88;66.63;96042.84;5026468;28;20626;-55
2022/10/07 06:00:13;;;;;;;15.27;6.60;;;12.50;99.90;;;13.18;65.70;96052.66;5026260;28;21003;-57
2022/10/07 06:02:40;;;;;;;14.53;6.40;;;12.80;99.90;;;13.48;64.96;96051.16;5026407;28;20976;-60
2022/10/07 06:05:08;;;;;;;18.83;6.80;;;13.10;99.90;;;13.77;64.81;96051.31;5026096;28;20472;-55
2022/10/07 06:07:37;;;;;;;14.10;7.30;;;13.30;99.90;;;14.07;63.79;96054.13;5026266;28;20461;-53
2022/10/07 06:13:07;;;;;;;14.03;7.17;;;13.90;99.50;;;14.69;61.87;96054.94;4989578;28;20487;-56
2022/10/07 06:15:34;;;;;;;6.83;6.13;;;14.30;98.90;;;15.04;61.83;96062.38;5026132;28;20469;-56
2022/10/07 06:18:02;;;;;;;15.00;7.20;;;14.60;98.70;;;15.38;60.80;96064.63;5022485;28;20448;-53
2022/10/07 06:20:29;;;;;;;8.27;7.27;;;14.90;97.90;;;15.72;60.02;96061.53;5025895;28;20972;-56
2022/10/07 06:22:58;;;;;;;10.50;6.00;;;15.30;97.40;;;16.08;59.12;96075.00;5026301;28;20476;-57
2022/10/07 06:25:25;;;;;;;26.27;7.23;;;15.60;96.80;;;16.43;58.70;96065.50;5022502;28;20554;-57
2022/10/07 06:27:54;;;;;;;15.60;8.17;;;16.00;96.50;;;16.79;58.21;96064.78;5025881;28;20510;-59
2022/10/07 06:30:22;;;;;;;8.80;6.07;;;16.30;96.20;;;17.10;57.63;96069.78;5025149;28;21004;-55
2022/10/07 06:32:49;;;;;;;11.40;5.03;;;16.60;95.50;;;17.45;56.50;96066.31;5020722;28;20456;-55
2022/10/07 06:35:17;;;;;;;12.33;6.03;;;16.90;95.10;;;17.84;56.41;96071.25;5026019;28;20469;-56
2022/10/07 06:37:44;;;;;;;19.97;6.70;;;17.30;94.60;;;18.28;54.64;96063.25;5025827;28;20448;-56
2022/10/07 06:40:13;;;;;;;14.73;6.17;;;17.70;93.70;;;18.71;53.94;96063.28;5025543;28;20483;-54
2022/10/07 06:42:40;;;;;;;14.30;5.50;;;18.10;92.90;;;19.12;53.37;96065.28;5025385;28;20456;-55
2022/10/07 06:45:09;;;;;;;15.50;7.00;;;18.50;91.90;;;19.48;52.15;96070.31;5025724;28;20476;-56
2022/10/07 06:47:37;;;;;;;16.23;6.30;;;18.90;90.60;;;19.84;52.20;96067.34;5025427;28;20456;-56
2022/10/07 06:50:05;;;;;;;13.07;5.90;;;19.30;90.70;;;20.26;51.35;96074.28;5025301;28;20857;-54
2022/10/07 06:52:33;;;;;;;14.13;5.40;;;19.60;90.10;;;20.72;49.65;96063.81;5025534;28;20518;-55
2022/10/07 06:55:00;;;;;;;20.03;5.30;;;20.10;87.50;;;21.16;49.83;96069.63;5025676;28;20477;-54
2022/10/07 06:57:29;;;;;;;11.50;5.63;;;20.50;86.70;;;21.62;49.25;96075.03;5025859;28;20774;-56
2022/10/07 06:59:56;;;;;;;11.70;4.77;;;21.00;85.60;;;22.13;49.64;96067.22;5025698;28;20489;-57
2022/10/07 07:02:24;;;;;;;5.23;3.83;;;21.50;85.90;;;22.71;48.98;96066.63;5025176;28;20468;-55
2022/10/07 07:04:51;;;;;;;7.93;3.90;;;22.00;84.00;;;23.27;47.68;96068.78;5025484;28;20560;-55
2022/10/07 07:07:18;;;;;;;6.77;4.60;;;22.50;82.50;;;23.83;46.39;96073.47;5025415;28;20492;-56
2022/10/07 07:09:46;;;;;;;14.37;4.37;;;23.00;79.40;;;24.35;46.01;96071.41;5024924;28;20499;-54
2022/10/07 07:12:13;;;;;;;10.00;3.67;;;23.60;76.50;;;24.82;44.83;96064.47;5025603;28;20456;-55
2022/10/07 07:14:43;;;;;;;13.87;4.20;;;24.10;74.00;;;25.34;43.42;96067.56;5025569;28;20476;-53
2022/10/07 07:17:11;;;;;;;7.90;3.90;;;24.70;69.00;;;25.87;42.57;96066.00;5025367;28;20471;-53
2022/10/07 07:19:38;;;;;;;4.60;4.00;;;25.20;67.10;;;26.39;41.53;96061.66;5025176;28;20581;-57
2022/10/07 07:22:07;;;;;;;9.77;4.40;;;25.80;64.10;;;26.87;41.79;96065.13;5025829;28;20984;-55
2022/10/07 07:24:34;;;;;;;12.93;4.23;;;26.30;64.50;;;27.23;40.57;96059.13;5025442;28;20891;-56
2022/10/07 07:27:01;;;;;;;12.93;4.20;;;26.70;60.40;;;27.64;39.33;96062.47;5025335;28;20833;-58
2022/10/07 07:29:29;;;;;;;13.00;4.10;;;27.20;58.70;;;27.96;38.42;96059.78;5024985;28;20595;-57
2022/10/07 07:31:58;;;;;;;6.03;4.47;;;27.60;57.20;;;28.10;38.19;96050.50;5025082;28;20518;-54
2022/10/07 07:34:26;;;;;;;7.60;4.50;;;27.80;55.00;;;28.29;37.65;96053.25;5024631;28;20555;-57
2022/10/07 07:36:54;;;;;;;4.47;3.00;;;28.00;54.40;;;28.49;36.96;96048.47;5025824;28;20841;-57
2022/10/07 07:39:21;;;;;;;6.83;3.60;;;28.30;53.60;;;28.65;36.00;96046.25;5025473;28;20279;-56
2022/10/07 07:41:49;;;;;;;7.93;3.23;;;28.50;52.30;;;28.77;35.71;96039.06;5025006;28;21037;-56
2022/10/07 07:44:17;;;;;;;5.43;3.10;;;28.60;51.10;;;28.88;35.13;96037.47;5025198;28;20222;-54
2022/10/07 07:46:48;;;;;;;9.10;3.20;;;28.70;49.80;;;28.91;35.21;96042.44;5025324;28;20444;-55
2022/10/07 07:49:17;;;;;;;9.87;2.80;;;28.70;50.00;;;28.97;34.99;96042.34;5024962;28;20710;-55
2022/10/07 07:51:44;;;;;;;7.90;3.80;;;28.70;50.00;;;29.04;35.11;96049.56;5024707;28;20208;-56
2022/10/07 07:54:12;;;;;;;5.10;1.90;;;28.60;49.90;;;29.14;34.14;96039.84;5025176;28;20275;-54
2022/10/07 07:56:39;;;;;;;2.57;2.40;;;28.60;48.70;;;29.31;33.19;96041.91;5024806;28;20209;-56
2022/10/07 07:59:06;;;;;;;2.90;2.60;;;28.80;48.20;;;29.51;33.77;96041.66;5024817;28;20221;-58
2022/10/07 08:01:34;;;;;;;12.70;2.47;;;28.90;48.00;;;29.54;33.08;96040.38;5025142;28;20207;-52
2022/10/07 08:04:02;;;;;;;4.90;2.50;;;29.00;47.60;;;29.39;32.09;96029.94;5024888;28;20281;-56
2022/10/07 08:06:33;;;;;;;2.53;2.33;;;28.90;46.50;;;29.33;32.79;96032.50;5025383;28;20202;-57
2022/10/07 08:09:00;;;;;;;10.90;2.83;;;28.80;46.20;;;29.30;32.23;96040.28;5028079;28;20201;-53
2022/10/07 08:11:28;;;;;;;5.60;3.43;;;28.70;46.30;;;29.01;31.32;96031.88;5024446;28;20290;-56
2022/10/07 08:13:56;;;;;;;5.53;3.50;;;28.50;45.20;;;28.66;32.12;96031.66;5024993;28;20761;-53
2022/10/07 08:16:27;;;;;;;8.10;3.50;;;28.20;45.10;;;28.43;31.88;96025.00;5024537;28;20510;-51
2022/10/07 08:18:55;;;;;;;4.80;3.60;;;27.90;44.80;;;28.25;32.22;96015.81;5024810;28;20448;-57
2022/10/07 08:21:24;;;;;;;7.80;3.20;;;27.80;45.20;;;28.13;31.61;96017.59;5026329;28;20518;-57
2022/10/07 08:23:56;;;;;;;44.57;5.40;;;27.60;45.40;;;28.07;31.00;96010.34;5028220;28;20578;-57
2022/10/07 08:26:23;;;;;;;6.93;2.70;;;27.50;44.70;;;28.21;30.73;96014.63;5028330;28;20960;-56
2022/10/07 08:28:50;;;;;;;5.73;2.93;;;27.50;44.50;;;28.43;31.18;95995.25;5028044;28;20443;-55
2022/10/07 08:31:18;;;;;;;6.97;2.70;;;27.60;45.30;;;28.49;31.69;95999.75;5028024;28;20491;-55
2022/10/07 08:33:47;;;;;;;5.80;2.80;;;27.70;44.70;;;28.52;31.11;96001.16;5028238;28;20448;-57
2022/10/07 08:36:16;;;;;;;9.60;3.97;;;27.70;44.30;;;28.43;30.42;95997.94;5028382;28;20479;-56
2022/10/07 08:38:43;;;;;;;13.97;3.27;;;27.70;44.10;;;28.25;30.85;95998.75;5028611;28;20699;-56
2022/10/07 08:41:31;;;;;;;13.93;3.77;;;27.60;43.60;;;28.09;30.14;95994.75;5027905;28;20464;-55
2022/10/07 08:43:59;;;;;;;3.63;2.23;;;27.50;43.50;;;28.00;28.83;95996.09;5027516;28;20838;-56
2022/10/07 08:46:29;;;;;;;8.23;2.60;;;27.30;41.00;;;28.01;30.34;95992.31;5027828;28;20460;-52
2022/10/07 08:49:02;;;;;;;6.23;2.80;;;27.30;43.40;;;28.12;29.90;95988.91;5027544;28;20462;-55
2022/10/07 08:51:31;;;;;;;13.60;3.03;;;27.30;43.40;;;28.26;30.08;95989.59;5028050;28;20936;-53
2022/10/07 08:53:58;;;;;;;10.53;2.70;;;27.50;43.40;;;28.39;30.24;95980.50;5024801;28;20458;-55
2022/10/07 08:56:27;;;;;;;8.30;3.03;;;27.60;42.80;;;28.45;30.37;95976.88;5027795;28;20957;-55
2022/10/07 08:59:16;;;;;;;8.90;3.10;;;27.60;42.80;;;28.51;29.51;95981.41;5027686;28;20452;-55
2022/10/07 09:01:54;;;;;;;9.50;2.50;;;27.80;43.20;;;28.65;30.10;95975.88;5027685;28;20452;-56
2022/10/07 09:04:31;;;;;;;2.40;2.20;;;27.90;43.20;;;28.79;29.73;95969.22;5027880;28;20549;-56
2022/10/07 09:07:01;;;;;;;13.30;2.87;;;27.90;42.90;;;28.93;29.49;95967.19;5025126;28;20451;-57
2022/10/07 09:09:33;;;;;;;6.83;2.27;;;28.10;41.60;;;29.04;29.56;95969.09;5027693;28;21008;-53
2022/10/07 09:12:02;;;;;;;4.77;2.80;;;28.20;43.00;;;29.08;29.93;95964.03;5026781;28;20535;-55
2022/10/07 09:14:31;;;;;;;4.63;2.37;;;28.30;42.30;;;29.05;29.48;95959.09;5027722;28;20476;-56
2022/10/07 09:17:02;;;;;;;3.03;2.17;;;28.30;42.40;;;29.06;29.30;95956.16;5027553;28;20452;-57
2022/10/07 09:19:32;;;;;;;3.23;2.20;;;28.30;42.20;;;29.03;29.15;95947.66;5027559;28;20503;-55
2022/10/07 09:22:04;;;;;;;7.17;2.27;;;28.30;41.70;;;29.13;29.25;95950.66;5027723;28;20492;-58
2022/10/07 09:24:31;;;;;;;8.73;2.50;;;28.30;41.80;;;29.19;28.43;95947.03;5024260;28;20558;-55
2022/10/07 09:27:01;;;;;;;8.70;1.67;;;28.40;41.00;;;29.05;29.08;95948.25;5027681;28;20453;-57
2022/10/07 09:29:30;;;;;;;5.43;2.87;;;28.40;41.90;;;28.89;29.53;95934.31;5027436;28;20483;-56
2022/10/07 09:31:57;;;;;;;2.27;2.13;;;28.20;40.90;;;28.63;29.76;95942.78;5026872;28;20519;-57
2022/10/07 09:34:27;;;;;;;9.40;2.00;;;28.00;41.30;;;28.51;29.64;95948.09;5025489;28;20526;-55
2022/10/07 09:37:19;;;;;;;2.50;2.30;;;27.80;42.40;;;28.46;29.29;95940.66;5027931;28;20454;-57
2022/10/07 09:39:48;;;;;;;4.47;2.17;;;27.80;42.30;;;28.38;29.92;95938.25;5026943;28;20678;-56
2022/10/07 09:42:29;;;;;;;4.90;2.37;;;27.70;42.50;;;28.18;29.25;95935.75;5027320;28;20521;-57
2022/10/07 09:44:58;;;;;;;5.10;2.67;;;27.50;41.50;;;28.05;29.82;95925.91;5026898;28;20575;-58
2022/10/07 09:47:27;;;;;;;28.37;3.30;;;27.40;42.30;;;27.89;30.24;95938.13;5027162;28;20451;-56
2022/10/07 09:49:58;;;;;;;3.13;2.10;;;27.30;42.40;;;27.78;30.45;95934.25;5023789;28;20464;-57
2022/10/07 09:52:26;;;;;;;4.23;2.00;;;27.20;42.50;;;27.63;30.31;95925.66;5027410;28;20436;-53
2022/10/07 09:54:54;;;;;;;5.23;2.20;;;27.00;42.90;;;27.46;30.25;95926.19;5026818;28;20479;-56
2022/10/07 09:57:32;;;;;;;5.57;2.50;;;26.90;42.20;;;27.38;30.15;95917.56;5026966;28;20459;-58
2022/10/07 10:00:26;;;;;;;7.03;3.13;;;26.70;43.00;;;27.28;29.61;95918.00;5027029;28;20515;-58
2022/10/07 10:02:56;;;;;;;2.33;2.13;;;26.70;42.90;;;27.23;30.73;95910.56;5023050;28;20467;-56
2022/10/07 10:05:27;;;;;;;4.90;1.30;;;26.60;43.00;;;27.23;30.39;95901.63;5026653;28;20475;-54
2022/10/07 10:07:57;;;;;;;6.00;2.30;;;26.60;43.00;;;27.21;30.76;95907.25;5027064;28;20456;-55
2022/10/07 10:10:26;;;;;;;8.63;1.93;;;26.50;42.90;;;27.17;30.89;95901.47;5026772;28;20499;-56
2022/10/07 10:12:56;;;;;;;1.63;1.30;;;26.50;42.90;;;27.12;30.23;95895.06;5027065;28;20491;-54
2022/10/07 10:15:28;;;;;;;1.70;1.50;;;26.50;42.90;;;27.12;29.38;95898.56;5023583;28;20468;-57
2022/10/07 10:17:56;;;;;;;11.83;2.00;;;26.50;41.20;;;27.12;30.23;95895.88;5026418;28;20444;-53
2022/10/07 10:20:32;;;;;;;1.60;1.40;;;26.50;42.90;;;27.20;30.10;95897.47;5026980;28;20542;-56
2022/10/07 10:23:00;;;;;;;2.03;1.90;;;26.50;42.60;;;27.19;28.35;95888.56;5026202;28;20563;-54
2022/10/07 10:28:34;;;;;;;2.17;2.07;;;26.40;41.40;;;26.79;29.62;95888.84;5025638;28;20463;-56
2022/10/07 10:31:07;;;;;;;2.27;1.60;;;26.20;41.50;;;26.73;30.08;95884.28;5026546;28;20503;-56
2022/10/07 10:33:36;;;;;;;2.03;1.90;;;26.10;42.70;;;26.76;28.95;95883.03;5026236;28;20448;-56